createdAt,value
2022-10-13T00:02:44.659Z,12.70
2022-10-13T00:06:45.925Z,11.13
2022-10-13T00:10:49.724Z,12.67
2022-10-13T00:14:50.898Z,12.17
2022-10-13T00:18:52.091Z,11.27
2022-10-13T00:22:53.279Z,10.00
2022-10-13T00:26:54.764Z,10.57
2022-10-13T00:30:56.230Z,11.43
2022-10-13T00:34:57.447Z,10.93
2022-10-13T00:38:58.667Z,12.13
2022-10-13T00:43:09.060Z,10.97
2022-10-13T00:47:19.755Z,10.60
2022-10-13T00:51:28.813Z,14.70
2022-10-13T00:55:35.849Z,12.77
2022-10-13T00:59:38.555Z,13.80
2022-10-13T01:03:39.830Z,15.97
2022-10-13T01:07:40.933Z,15.27
2022-10-13T01:12:01.301Z,14.60
2022-10-13T01:16:18.518Z,12.90
2022-10-13T01:20:49.162Z,14.97
2022-10-13T01:25:08.683Z,12.50
2022-10-13T01:29:16.762Z,14.30
2022-10-13T01:33:21.682Z,12.63
2022-10-13T01:37:35.234Z,12.23
2022-10-13T01:41:39.440Z,13.10
2022-10-13T01:45:44.455Z,14.60
2022-10-13T01:49:46.749Z,14.83
2022-10-13T01:53:49.042Z,15.37
2022-10-13T01:57:50.220Z,15.67
2022-10-13T02:02:07.772Z,15.67
2022-10-13T02:06:15.759Z,12.70
2022-10-13T02:10:30.042Z,11.33
2022-10-13T02:14:34.436Z,13.40
2022-10-13T02:18:36.327Z,13.50
2022-10-13T02:22:44.361Z,17.40
2022-10-13T02:26:46.075Z,18.53
2022-10-13T02:30:48.215Z,19.00
2022-10-13T02:34:50.215Z,23.00
2022-10-13T02:38:51.394Z,21.90
2022-10-13T02:42:52.576Z,22.27
2022-10-13T02:46:53.654Z,23.00
2022-10-13T02:50:54.723Z,24.83
2022-10-13T02:54:55.937Z,25.33
2022-10-13T02:58:57.123Z,21.77
2022-10-13T03:02:58.623Z,20.00
2022-10-13T03:06:59.825Z,18.30
2022-10-13T03:11:01.510Z,18.37
2022-10-13T03:15:03.327Z,19.03
2022-10-13T03:19:04.526Z,19.07
2022-10-13T03:23:06.517Z,19.93
2022-10-13T03:27:08.189Z,19.10
2022-10-13T03:31:11.079Z,17.67
2022-10-13T03:35:12.477Z,19.30
2022-10-13T03:39:13.569Z,20.10
2022-10-13T03:43:14.665Z,21.40
2022-10-13T03:47:15.771Z,24.97
2022-10-13T03:51:19.071Z,25.47
2022-10-13T03:55:20.140Z,23.60
2022-10-13T03:59:21.241Z,24.30
2022-10-13T04:03:23.832Z,23.20
2022-10-13T04:07:25.025Z,21.53
2022-10-13T04:11:26.127Z,22.57
2022-10-13T04:15:27.230Z,20.30
2022-10-13T04:19:28.331Z,22.63
2022-10-13T04:23:29.517Z,21.93
2022-10-13T04:27:30.614Z,20.50
2022-10-13T04:31:32.307Z,23.03
2022-10-13T04:35:33.798Z,22.37
2022-10-13T04:39:34.989Z,23.23
2022-10-13T04:43:36.376Z,20.30
2022-10-13T04:47:38.970Z,21.73
2022-10-13T04:51:40.068Z,22.13
2022-10-13T04:55:41.146Z,21.57
2022-10-13T04:59:42.239Z,19.50
2022-10-13T05:03:43.423Z,19.63
2022-10-13T05:07:44.528Z,20.40
2022-10-13T05:11:45.732Z,17.80
2022-10-13T05:15:47.233Z,18.93
2022-10-13T05:19:49.005Z,20.13
2022-10-13T05:23:52.425Z,21.07
2022-10-13T05:27:53.498Z,24.43
2022-10-13T05:31:54.600Z,26.37
2022-10-13T05:35:59.502Z,24.30
2022-10-13T05:40:00.905Z,25.07
2022-10-13T05:44:05.564Z,23.93
2022-10-13T05:48:06.737Z,23.77
2022-10-13T05:52:11.631Z,23.47
2022-10-13T05:56:16.636Z,24.47
2022-10-13T06:00:19.239Z,21.90
2022-10-13T06:04:24.287Z,22.00
2022-10-13T06:08:25.779Z,24.17
2022-10-13T06:12:26.967Z,23.63
2022-10-13T06:16:28.039Z,24.20
2022-10-13T06:20:29.156Z,25.80
2022-10-13T06:24:30.539Z,25.33
2022-10-13T06:28:31.765Z,24.47
2022-10-13T06:32:33.055Z,21.77
2022-10-13T06:36:34.234Z,19.40
2022-10-13T06:40:35.348Z,20.63
2022-10-13T06:44:36.526Z,21.53
2022-10-13T06:48:37.917Z,22.50
2022-10-13T06:52:39.094Z,21.73
2022-10-13T06:56:40.290Z,20.97
2022-10-13T07:00:41.885Z,20.00
2022-10-13T07:04:43.083Z,21.47
2022-10-13T07:08:44.457Z,20.97
2022-10-13T07:12:45.981Z,20.83
2022-10-13T07:16:47.954Z,21.90
2022-10-13T07:20:49.051Z,22.03
2022-10-13T07:24:50.227Z,25.33
2022-10-13T07:28:52.395Z,22.00
2022-10-13T07:32:53.709Z,21.97
2022-10-13T07:36:54.824Z,22.20
2022-10-13T07:40:57.927Z,22.13
2022-10-13T07:44:59.123Z,21.33
2022-10-13T07:49:00.214Z,22.13
2022-10-13T07:53:01.762Z,20.47
2022-10-13T07:57:03.019Z,20.90
2022-10-13T08:01:04.654Z,21.30
2022-10-13T08:05:06.137Z,20.90
2022-10-13T08:09:08.732Z,22.17
2022-10-13T08:13:11.309Z,20.00
2022-10-13T08:17:12.392Z,21.40
2022-10-13T08:21:45.732Z,21.30
2022-10-13T08:25:19.883Z,22.40
2022-10-13T08:29:22.866Z,23.83
2022-10-13T08:33:25.356Z,25.53
2022-10-13T08:37:26.461Z,26.57
2022-10-13T08:41:39.920Z,28.20
2022-10-13T08:45:42.334Z,28.40
2022-10-13T08:49:45.494Z,15.50
2022-10-13T08:53:48.191Z,25.57
2022-10-13T08:57:49.483Z,23.73
2022-10-13T09:01:54.955Z,25.63
2022-10-13T09:06:12.059Z,23.97
2022-10-13T09:10:14.762Z,26.07
2022-10-13T09:14:26.604Z,24.63
2022-10-13T09:18:31.169Z,25.40
2022-10-13T09:22:36.867Z,26.70
2022-10-13T09:26:38.664Z,24.97
2022-10-13T09:30:41.972Z,24.03
2022-10-13T09:34:43.075Z,24.00
2022-10-13T09:38:47.973Z,25.60
2022-10-13T09:42:52.074Z,23.60
2022-10-13T09:46:56.466Z,22.37
2022-10-13T09:50:58.534Z,26.93
2022-10-13T09:55:00.302Z,25.63
2022-10-13T09:59:23.267Z,26.20
2022-10-13T10:03:31.617Z,25.03
2022-10-13T10:07:33.310Z,23.67
2022-10-13T10:11:38.327Z,25.40
2022-10-13T10:15:51.950Z,24.77
2022-10-13T10:19:57.068Z,23.97
2022-10-13T10:24:18.959Z,65.07
2022-10-13T10:28:36.358Z,24.60
2022-10-13T10:33:02.899Z,27.53
2022-10-13T10:37:22.785Z,25.40
2022-10-13T10:41:42.235Z,26.60
2022-10-13T10:45:45.436Z,28.10
2022-10-13T10:49:47.431Z,28.83
2022-10-13T10:54:04.333Z,29.33
2022-10-13T10:58:24.124Z,29.73
2022-10-13T11:02:52.209Z,27.90
2022-10-13T11:06:53.465Z,29.27
2022-10-13T11:11:26.710Z,55.73
2022-10-13T11:15:40.527Z,28.33
2022-10-13T11:19:41.693Z,24.27
2022-10-13T11:23:47.563Z,18.60
2022-10-13T11:27:48.885Z,22.63
2022-10-13T11:31:54.508Z,18.07
2022-10-13T11:35:56.495Z,19.73
2022-10-13T11:40:04.089Z,19.37
2022-10-13T11:44:19.132Z,21.20
2022-10-13T11:48:59.808Z,18.17
2022-10-13T11:53:16.709Z,20.67
2022-10-13T11:57:21.407Z,20.93
2022-10-13T12:01:22.485Z,17.93
2022-10-13T12:05:26.822Z,17.83
2022-10-13T12:09:30.809Z,17.80
2022-10-13T12:13:33.325Z,16.90
2022-10-13T12:17:35.320Z,18.90
2022-10-13T12:21:40.283Z,17.90
2022-10-13T12:25:45.261Z,17.53
2022-10-13T12:29:46.781Z,17.70
2022-10-13T12:33:53.269Z,16.90
2022-10-13T12:37:55.568Z,15.60
2022-10-13T12:41:58.561Z,16.67
2022-10-13T12:45:59.776Z,16.73
2022-10-13T12:50:21.969Z,17.40
2022-10-13T12:54:26.709Z,15.77
2022-10-13T12:58:30.999Z,16.50
2022-10-13T13:02:32.710Z,15.77
2022-10-13T13:06:36.859Z,16.73
2022-10-13T13:10:41.852Z,16.70
2022-10-13T13:14:47.470Z,17.03
2022-10-13T13:18:50.163Z,16.40
2022-10-13T13:22:51.357Z,17.00
2022-10-13T13:26:52.936Z,16.03
2022-10-13T13:30:54.040Z,17.50
2022-10-13T13:34:55.150Z,17.63
2022-10-13T13:38:56.331Z,16.20
2022-10-13T13:42:57.420Z,18.30
2022-10-13T13:46:58.607Z,18.97
2022-10-13T13:51:00.036Z,17.57
2022-10-13T13:55:01.118Z,18.47
2022-10-13T13:59:02.300Z,18.00
2022-10-13T14:03:04.096Z,19.30
2022-10-13T14:07:05.298Z,18.13
2022-10-13T14:11:06.901Z,19.30
2022-10-13T14:15:09.345Z,20.17
2022-10-13T14:19:10.633Z,18.83
2022-10-13T14:23:11.826Z,20.50
2022-10-13T14:27:12.950Z,18.40
2022-10-13T14:31:14.550Z,20.23
2022-10-13T14:35:15.906Z,19.07
2022-10-13T14:39:17.186Z,18.43
2022-10-13T14:43:18.442Z,19.57
2022-10-13T14:47:19.889Z,19.33
2022-10-13T14:51:21.304Z,19.73
2022-10-13T14:55:22.492Z,20.37
2022-10-13T14:59:23.605Z,19.40
2022-10-13T15:03:26.719Z,22.83
2022-10-13T15:07:29.159Z,22.47
2022-10-13T15:11:30.367Z,18.87
2022-10-13T15:15:32.771Z,19.10
2022-10-13T15:19:34.014Z,19.97
2022-10-13T15:23:35.272Z,19.47
2022-10-13T15:27:41.891Z,19.67
2022-10-13T15:31:43.061Z,17.80
2022-10-13T15:35:49.893Z,18.00
2022-10-13T15:39:56.070Z,18.90
2022-10-13T15:43:53.964Z,16.90
2022-10-13T15:47:56.969Z,19.13
2022-10-13T15:51:58.235Z,17.27
2022-10-13T15:56:01.858Z,17.80
2022-10-13T16:00:05.800Z,18.13
2022-10-13T16:04:06.988Z,19.70
2022-10-13T16:08:08.277Z,20.43
2022-10-13T16:12:09.765Z,17.10
2022-10-13T16:16:11.161Z,18.27
2022-10-13T16:20:12.255Z,19.87
2022-10-13T16:24:13.471Z,19.70
2022-10-13T16:28:14.687Z,21.93
2022-10-13T16:32:15.963Z,23.23
2022-10-13T16:36:18.742Z,22.17
2022-10-13T16:40:19.840Z,21.93
2022-10-13T16:44:21.125Z,22.10
2022-10-13T16:48:22.563Z,22.20
2022-10-13T16:52:23.740Z,23.10
2022-10-13T16:56:26.661Z,25.67
2022-10-13T17:00:27.912Z,24.10
2022-10-13T17:04:30.153Z,20.03
2022-10-13T17:08:31.449Z,23.00
2022-10-13T17:12:33.140Z,23.50
2022-10-13T17:16:35.246Z,27.80
2022-10-13T17:20:36.438Z,27.13
2022-10-13T17:24:37.642Z,28.40
2022-10-13T17:28:39.594Z,28.40
2022-10-13T17:32:40.905Z,29.80
2022-10-13T17:36:41.995Z,28.60
2022-10-13T17:40:43.181Z,26.70
2022-10-13T17:44:44.394Z,28.40
2022-10-13T17:48:45.681Z,30.40
2022-10-13T17:52:46.770Z,26.27
2022-10-13T17:56:48.654Z,23.20
2022-10-13T18:01:12.004Z,25.93
2022-10-13T18:04:53.346Z,25.37
2022-10-13T18:08:54.444Z,26.27
2022-10-13T18:12:55.609Z,26.73
2022-10-13T18:16:56.713Z,25.70
2022-10-13T18:21:00.687Z,24.47
2022-10-13T18:25:01.792Z,27.30
2022-10-13T18:29:06.193Z,25.73
2022-10-13T18:33:07.307Z,26.33
2022-10-13T18:37:09.099Z,23.70
2022-10-13T18:41:10.287Z,21.67
2022-10-13T18:45:11.517Z,21.30
2022-10-13T18:49:14.426Z,23.53
2022-10-13T18:53:15.603Z,24.50
2022-10-13T18:57:16.798Z,27.53
2022-10-13T19:01:21.018Z,25.07
2022-10-13T19:05:22.188Z,23.97
2022-10-13T19:09:24.884Z,23.33
2022-10-13T19:13:27.081Z,27.00
2022-10-13T19:17:28.260Z,26.17
2022-10-13T19:21:29.665Z,26.17
2022-10-13T19:25:30.946Z,25.17
2022-10-13T19:29:34.047Z,27.40
2022-10-13T19:33:35.543Z,26.53
2022-10-13T19:37:37.325Z,32.30
2022-10-13T19:41:38.714Z,23.47
2022-10-13T19:45:50.925Z,22.57
2022-10-13T19:49:52.591Z,19.37
2022-10-13T19:53:53.691Z,18.20
2022-10-13T19:57:54.797Z,14.73
2022-10-13T20:01:56.787Z,12.33
2022-10-13T20:05:57.994Z,12.00
2022-10-13T20:09:59.170Z,13.40
2022-10-13T20:14:00.535Z,12.03
2022-10-13T20:18:01.619Z,13.00
2022-10-13T20:22:02.803Z,12.00
2022-10-13T20:26:05.990Z,13.27
2022-10-13T20:30:07.971Z,12.93
2022-10-13T20:34:09.666Z,11.20
2022-10-13T20:38:10.858Z,10.43
2022-10-13T20:42:13.524Z,10.20
2022-10-13T20:46:16.325Z,9.73
2022-10-13T20:50:17.489Z,10.57
2022-10-13T20:54:18.587Z,8.90
2022-10-13T20:58:19.655Z,10.03
2022-10-13T21:02:20.777Z,9.73
2022-10-13T21:06:23.865Z,11.00
2022-10-13T21:10:25.158Z,11.57
2022-10-13T21:14:26.353Z,11.13
2022-10-13T21:18:27.451Z,12.50
2022-10-13T21:22:28.623Z,11.80
2022-10-13T21:26:31.025Z,11.17
2022-10-13T21:30:32.983Z,10.80
2022-10-13T21:34:34.184Z,11.73
2022-10-13T21:38:35.754Z,10.43
2022-10-13T21:42:36.944Z,11.40
2022-10-13T21:46:38.107Z,12.97
2022-10-13T21:50:39.271Z,11.00
2022-10-13T21:54:40.859Z,12.77
2022-10-13T21:58:42.274Z,12.50
2022-10-13T22:02:43.453Z,12.73
2022-10-13T22:06:44.751Z,13.40
2022-10-13T22:10:45.932Z,14.10
2022-10-13T22:14:47.165Z,15.10
2022-10-13T22:18:51.242Z,15.20
2022-10-13T22:22:52.547Z,14.53
2022-10-13T22:26:53.843Z,15.43
2022-10-13T22:30:55.022Z,16.63
2022-10-13T22:34:56.197Z,16.60
2022-10-13T22:39:00.568Z,17.10
2022-10-13T22:43:01.759Z,14.90
2022-10-13T22:47:02.886Z,18.43
2022-10-13T22:51:05.142Z,18.07
2022-10-13T22:55:07.427Z,21.57
2022-10-13T22:59:08.984Z,19.10
2022-10-13T23:03:12.902Z,19.30
2022-10-13T23:07:14.227Z,18.83
2022-10-13T23:11:16.727Z,18.83
2022-10-13T23:15:17.900Z,19.97
2022-10-13T23:19:20.114Z,20.00
2022-10-13T23:23:21.354Z,18.10
2022-10-13T23:27:23.003Z,18.77
2022-10-13T23:31:25.922Z,19.33
2022-10-13T23:35:27.178Z,19.53
2022-10-13T23:39:28.983Z,18.20
2022-10-13T23:43:30.181Z,18.00
2022-10-13T23:47:31.274Z,18.40
2022-10-13T23:51:32.349Z,19.80
2022-10-13T23:55:38.444Z,18.10
2022-10-13T23:59:39.609Z,18.87
